Time;durP1;ratioP1;P1;durP2;ratioP2;P2;SDS_P1;SDS_P2;PMS_P1;PMS_P2;Temp;Humidity;BMP_temperature;BMP_pressure;BME280_temperature;BME280_humidity;BME280_pressure;Samples;Min_cycle;Max_cycle;Signal;HPM_P1;HPM_P2
2022/06/23 07:54:16;;;;;;;;;;;;;;;;;;5083060;27;20400;-74
2022/06/23 08:19:14;;;;;;;;;;;;;;;;;;4150988;27;10000790;-84
2022/06/23 08:23:24;;;;;;;;;;;;;;;;;;4852066;27;4515276;-87
2022/06/23 08:26:45;;;;;;;22.58;11.85;;;;;;;21.95;66.84;98007.78;5038014;27;20413;-83
2022/06/23 08:29:12;;;;;;;26.60;12.02;;;;;;;21.96;66.71;98010.19;5040676;28;20096;-86
2022/06/23 08:40:07;;;;;;;19.90;11.45;;;;;;;21.89;67.20;98009.69;5100925;27;20385;-89
2022/06/23 08:42:45;;;;;;;20.73;10.85;;;;;;;21.94;66.76;98008.88;5062451;28;20032;-85
2022/06/23 08:45:33;;;;;;;19.38;10.70;;;;;;;21.97;66.77;98008.34;5056772;28;20501;-87
2022/06/23 08:47:58;;;;;;;18.45;10.52;;;;;;;21.98;66.38;98000.03;5097091;28;20717;-86
2022/06/23 08:50:23;;;;;;;18.67;10.60;;;;;;;22.00;66.37;98000.53;5101857;28;20016;-86
2022/06/23 08:52:57;;;;;;;17.17;8.88;;;;;;;21.99;66.21;97996.28;5098341;28;20280;-81
2022/06/23 08:55:25;;;;;;;17.48;8.68;;;;;;;21.98;66.45;97992.03;5085753;28;20031;-89
2022/06/23 08:57:55;;;;;;;16.58;8.85;;;;;;;21.98;66.49;97989.34;5048263;28;20400;-85
2022/06/23 09:00:44;;;;;;;13.18;7.80;;;;;;;21.99;66.44;97992.81;5082318;28;20035;-88
2022/06/23 09:03:12;;;;;;;17.67;9.13;;;;;;;21.97;66.36;97987.75;5070480;28;20084;-88
2022/06/23 09:05:53;;;;;;;49.80;16.55;;;;;;;21.97;66.63;97985.09;5066337;28;20559;-88
2022/06/23 09:08:43;;;;;;;18.05;9.15;;;;;;;21.99;66.48;97988.28;5070480;28;20396;-87
2022/06/23 09:11:43;;;;;;;39.22;14.70;;;;;;;21.99;66.73;97984.81;5090336;28;20051;-89
2022/06/23 09:14:29;;;;;;;39.03;15.05;;;;;;;22.00;66.72;97989.06;5073657;28;20036;-90
2022/06/23 09:17:31;;;;;;;42.58;15.45;;;;;;;21.92;66.88;97980.56;5085899;28;20047;-85
2022/06/23 09:20:29;;;;;;;36.30;13.95;;;;;;;21.92;66.91;97979.78;5088396;28;20348;-84
2022/06/23 09:23:21;;;;;;;39.67;14.02;;;;;;;21.91;66.60;97988.88;5076601;28;20032;-85
2022/06/23 09:26:25;;;;;;;38.15;14.48;;;;;;;21.91;66.81;97988.88;5088938;28;20092;-88
2022/06/23 09:29:12;;;;;;;38.85;13.80;;;;;;;21.90;66.95;97972.06;5012457;28;20026;-88
2022/06/23 09:31:37;;;;;;;35.58;12.90;;;;;;;21.89;66.77;97985.66;5110447;28;20079;-89
2022/06/23 09:34:33;;;;;;;35.90;12.82;;;;;;;21.88;66.53;97981.41;5090468;28;20082;-88
2022/06/23 09:37:16;;;;;;;30.20;12.50;;;;;;;21.90;66.12;97984.59;5081710;28;20623;-90
2022/06/23 09:40:15;;;;;;;30.90;11.93;;;;;;;21.86;66.00;97979.00;5080720;28;20101;-88
2022/06/23 09:43:16;;;;;;;29.30;10.57;;;;;;;21.90;66.00;97976.59;5068220;28;20051;-89
2022/06/23 09:46:24;;;;;;;26.63;10.57;;;;;;;21.89;66.17;97980.31;5070080;28;20033;-87
2022/06/23 09:49:12;;;;;;;24.55;9.48;;;;;;;21.86;66.63;97978.22;5102850;28;20032;-87
2022/06/23 09:51:49;;;;;;;21.77;9.88;;;;;;;21.83;66.90;97981.41;5068470;28;20021;-88
2022/06/23 09:54:14;;;;;;;28.40;10.82;;;;;;;21.82;66.75;97963.81;5051989;28;20369;-88
2022/06/23 09:56:52;;;;;;;25.77;10.30;;;;;;;21.79;66.26;97972.38;5074354;28;20035;-88
2022/06/23 09:59:26;;;;;;;27.23;10.07;;;;;;;21.80;66.11;97960.63;5073483;28;20270;-85
2022/06/23 10:02:00;;;;;;;25.35;10.50;;;;;;;21.79;66.32;97959.81;5072949;28;20044;-85
2022/06/23 10:04:48;;;;;;;21.55;10.25;;;;;;;21.82;65.95;97958.47;5058002;28;20039;-88
2022/06/23 10:07:21;;;;;;;23.92;10.18;;;;;;;21.88;65.63;97957.38;5075655;28;20081;-88
2022/06/23 10:10:02;;;;;;;29.88;10.68;;;;;;;21.88;65.94;97950.16;5058153;28;20020;-88
2022/06/23 10:12:45;;;;;;;24.17;10.00;;;;;;;21.89;65.59;97948.28;5084750;28;20467;-88
2022/06/23 10:15:23;;;;;;;21.17;10.20;;;;;;;21.90;65.71;97949.91;5075707;28;20115;-89
2022/06/23 10:18:03;;;;;;;20.95;9.85;;;;;;;21.87;65.77;97945.09;5077216;28;20615;-88
2022/06/23 10:21:07;;;;;;;22.35;9.15;;;;;;;21.82;65.74;97942.44;5065031;28;20475;-88
2022/06/23 10:24:02;;;;;;;18.55;9.55;;;;;;;21.90;65.44;97944.56;5075440;28;20047;-89
2022/06/23 10:26:34;;;;;;;19.75;9.95;;;;;;;21.90;65.61;97934.69;5073266;28;20042;-89
2022/06/23 10:29:42;;;;;;;19.08;9.10;;;;;;;21.87;65.73;97937.09;5077651;28;20430;-90
2022/06/23 10:32:45;;;;;;;17.92;8.95;;;;;;;21.82;65.66;97939.78;5050998;28;20523;-84
2022/06/23 10:35:27;;;;;;;17.13;8.55;;;;;;;21.84;65.41;97941.13;5073471;28;20148;-84
2022/06/23 10:38:05;;;;;;;24.77;10.10;;;;;;;21.80;65.58;97940.06;5069161;28;20048;-84
2022/06/23 10:40:46;;;;;;;20.65;9.65;;;;;;;21.77;65.51;97939.81;5076505;28;20081;-88
2022/06/23 10:43:48;;;;;;;15.32;8.38;;;;;;;21.79;65.70;97924.34;5063932;28;20031;-87
2022/06/23 10:46:25;;;;;;;17.35;7.95;;;;;;;21.84;65.26;97937.66;5081921;28;20024;-88
2022/06/23 10:49:11;;;;;;;21.63;9.50;;;;;;;21.88;65.28;97930.66;5093217;27;20380;-87
2022/06/23 10:51:54;;;;;;;17.83;8.43;;;;;;;21.90;64.96;97928.53;5069650;28;20462;-87
2022/06/23 10:54:23;;;;;;;18.60;8.60;;;;;;;21.88;65.21;97925.31;5088463;28;20024;-87
2022/06/23 10:57:27;;;;;;;14.55;8.43;;;;;;;21.86;65.21;97927.47;5086583;28;20024;-87
2022/06/23 10:59:59;;;;;;;18.02;8.85;;;;;;;21.81;65.29;97914.97;5028898;28;20340;-89
2022/06/23 11:03:01;;;;;;;14.80;7.78;;;;;;;21.79;64.94;97916.31;5087823;28;20028;-86
2022/06/23 11:05:47;;;;;;;18.95;8.70;;;;;;;21.79;64.96;97917.13;5090979;28;20498;-86
2022/06/23 11:08:31;;;;;;;12.93;7.95;;;;;;;21.84;64.80;97913.63;5090025;28;20020;-85
2022/06/23 11:11:28;;;;;;;17.60;8.27;;;;;;;21.84;64.81;97910.97;5079227;28;20038;-88
2022/06/23 11:14:22;;;;;;;14.13;7.50;;;;;;;21.85;64.94;97904.53;5049217;28;20072;-86
2022/06/23 11:17:46;;;;;;;14.48;7.53;;;;;;;21.77;64.93;97905.09;5058236;28;20055;-86
2022/06/23 11:20:40;;;;;;;13.95;6.82;;;;;;;21.74;65.51;97908.34;5076802;27;20047;-89
2022/06/23 11:23:08;;;;;;;12.65;6.35;;;;;;;21.85;64.93;97899.19;4990869;28;158897;-85
2022/06/23 11:28:04;;;;;;;11.40;6.72;;;;;;;21.85;64.64;97899.19;5062885;27;20423;-86
2022/06/23 11:42:44;;;;;;;21.23;9.20;;;;;;;23.46;60.18;97884.56;4995083;27;20415;-82
2022/06/23 11:45:22;;;;;;;17.60;7.90;;;;;;;22.86;61.67;97875.38;4971273;28;20046;-81
2022/06/23 11:48:23;;;;;;;19.75;8.80;;;;;;;22.63;62.47;97867.03;4988354;28;20042;-78
2022/06/23 12:55:28;;;;;;;8.10;4.80;;;;;;;22.18;63.62;97799.59;5071064;27;20416;-83
2022/06/23 12:58:11;;;;;;;8.95;4.70;;;;;;;22.21;64.00;97795.59;5039279;28;20040;-80
2022/06/23 13:50:54;;;;;;;6.15;3.58;;;;;;;22.20;63.63;97751.28;5085826;28;20424;-85
2022/06/23 13:53:46;;;;;;;4.25;3.80;;;;;;;22.30;63.32;97745.00;5066079;28;20033;-82
2022/06/23 13:56:41;;;;;;;5.85;3.53;;;;;;;22.36;63.21;97743.88;5066704;28;20079;-83
2022/06/23 13:59:20;;;;;;;7.10;3.40;;;;;;;22.41;63.93;97751.84;5053138;28;20032;-87
2022/06/23 14:02:00;;;;;;;7.63;3.87;;;;;;;22.47;63.16;97736.53;5065198;28;20495;-91
2022/06/23 14:05:12;;;;;;;5.00;3.33;;;;;;;22.54;63.33;97731.63;5067261;28;20286;-93
2022/06/23 14:07:48;;;;;;;3.88;3.17;;;;;;;22.58;62.65;97730.78;5026844;28;20062;-88
2022/06/23 14:10:42;;;;;;;5.70;3.33;;;;;;;22.60;62.65;97731.28;5061083;28;20028;-90
2022/06/23 14:13:50;;;;;;;6.05;3.20;;;;;;;22.80;62.40;97721.44;5061025;28;20035;-81
2022/06/23 14:22:02;;;;;;;8.88;3.63;;;;;;;22.56;62.32;97721.47;5010411;28;20543;-82
2022/06/23 14:27:09;;;;;;;5.63;3.30;;;;;;;22.45;61.87;97715.47;5041140;28;20412;-83
2022/06/23 14:30:02;;;;;;;4.75;3.65;;;;;;;22.42;62.12;97710.66;5014017;28;20030;-83
2022/06/23 14:32:36;;;;;;;8.55;3.65;;;;;;;22.41;63.00;97706.41;5012447;28;20038;-84
2022/06/23 14:35:21;;;;;;;5.75;3.67;;;;;;;22.49;62.83;97704.97;5018258;28;20081;-83
2022/06/23 14:38:33;;;;;;;6.15;3.47;;;;;;;22.47;62.37;97702.59;5021023;28;20037;-83
2022/06/23 14:41:34;;;;;;;6.20;3.08;;;;;;;22.34;62.11;97698.75;5018500;28;20605;-83
2022/06/23 14:44:21;;;;;;;5.10;3.90;;;;;;;22.46;62.24;97689.53;5016337;28;20302;-85
2022/06/23 14:47:07;;;;;;;4.38;3.20;;;;;;;22.53;61.89;97684.63;5006512;28;20032;-84
2022/06/23 14:49:39;;;;;;;6.95;3.10;;;;;;;22.54;61.51;97673.66;5021990;28;20502;-80
2022/06/23 14:52:17;;;;;;;7.38;3.38;;;;;;;22.60;61.18;97685.84;5022677;28;20470;-79
2022/06/23 14:55:07;;;;;;;8.35;3.70;;;;;;;22.63;61.03;97682.63;5019748;28;20025;-79
2022/06/23 14:57:56;;;;;;;4.85;3.60;;;;;;;22.64;61.00;97667.38;5018113;28;20029;-79
2022/06/23 15:00:55;;;;;;;5.10;3.65;;;;;;;22.64;61.02;97670.84;5019489;28;20033;-79
2022/06/23 15:03:50;;;;;;;7.13;2.97;;;;;;;22.62;61.17;97667.69;5017366;28;20030;-79
2022/06/23 15:06:43;;;;;;;4.43;3.50;;;;;;;22.57;61.10;97659.72;5017605;28;20041;-79
2022/06/23 15:09:24;;;;;;;6.03;3.50;;;;;;;22.63;60.85;97658.56;5019652;28;20140;-83
2022/06/23 15:12:22;;;;;;;4.18;3.60;;;;;;;22.62;60.95;97661.53;5016520;28;20124;-83
2022/06/23 15:15:09;;;;;;;4.68;3.60;;;;;;;22.61;60.85;97650.06;5020008;28;20504;-83
2022/06/23 15:17:54;;;;;;;6.28;3.33;;;;;;;22.62;60.89;97643.63;5018371;28;20026;-83
2022/06/23 15:20:33;;;;;;;4.55;3.38;;;;;;;22.68;60.78;97647.81;5024351;28;20406;-83
2022/06/23 15:23:18;;;;;;;4.07;3.60;;;;;;;22.77;60.61;97647.16;5012185;28;20577;-83
2022/06/23 15:26:13;;;;;;;4.47;3.40;;;;;;;22.92;59.97;97645.09;5024756;28;20100;-83
2022/06/23 15:28:51;;;;;;;4.50;3.22;;;;;;;23.14;59.31;97646.34;5039989;28;20029;-83
2022/06/23 15:31:24;;;;;;;5.97;3.40;;;;;;;23.08;59.78;97634.94;5017771;28;144263;-83
2022/06/23 15:34:11;;;;;;;5.50;3.20;;;;;;;23.01;60.42;97634.53;5025502;28;20074;-86
2022/06/23 15:36:57;;;;;;;5.43;3.42;;;;;;;23.40;59.24;97636.06;5020899;28;20070;-88
2022/06/23 15:39:47;;;;;;;6.07;3.22;;;;;;;23.43;59.31;97636.25;5012760;28;20034;-86
2022/06/23 15:42:41;;;;;;;5.53;3.20;;;;;;;23.60;58.57;97635.69;4999856;28;20028;-84
2022/06/23 15:45:44;;;;;;;4.30;3.30;;;;;;;23.43;59.12;97619.41;5012704;28;20514;-84
